createdAt,value
2022-12-26T00:01:09.608Z,4.34
2022-12-26T00:03:56.595Z,4.38
2022-12-26T00:06:42.700Z,4.41
2022-12-26T00:09:28.341Z,4.41
2022-12-26T00:12:14.209Z,4.46
2022-12-26T00:15:00.235Z,4.41
2022-12-26T00:17:45.946Z,4.41
2022-12-26T00:20:31.485Z,4.33
2022-12-26T00:23:17.079Z,4.34
2022-12-26T00:26:08.312Z,4.33
2022-12-26T00:28:55.289Z,4.28
2022-12-26T00:31:41.164Z,4.33
2022-12-26T00:34:26.826Z,4.32
2022-12-26T00:37:12.467Z,4.36
2022-12-26T00:39:58.126Z,4.40
2022-12-26T00:42:44.799Z,4.46
2022-12-26T00:45:30.620Z,4.48
2022-12-26T00:48:16.210Z,4.45
2022-12-26T00:51:02.164Z,4.49
2022-12-26T00:53:48.161Z,4.44
2022-12-26T00:56:35.047Z,4.43
2022-12-26T00:59:21.930Z,4.42
2022-12-26T01:02:27.896Z,4.41
2022-12-26T01:05:13.785Z,4.38
2022-12-26T01:08:21.146Z,4.36
2022-12-26T01:11:08.255Z,4.37
2022-12-26T01:13:54.128Z,4.40
2022-12-26T01:16:40.588Z,4.37
2022-12-26T01:19:26.522Z,4.38
2022-12-26T01:22:12.308Z,4.37
2022-12-26T01:24:58.203Z,4.33
2022-12-26T01:27:44.265Z,4.31
2022-12-26T01:30:29.982Z,4.30
2022-12-26T01:33:16.161Z,4.29
2022-12-26T01:36:01.927Z,4.25
2022-12-26T01:38:47.501Z,4.26
2022-12-26T01:41:33.374Z,4.25
2022-12-26T01:44:56.609Z,4.23
2022-12-26T01:47:57.181Z,4.23
2022-12-26T01:50:42.839Z,4.17
2022-12-26T01:53:37.591Z,4.09
2022-12-26T01:56:36.494Z,4.04
2022-12-26T01:59:25.834Z,3.99
2022-12-26T02:02:11.823Z,3.97
2022-12-26T02:05:16.776Z,3.95
2022-12-26T02:08:17.636Z,3.94
2022-12-26T02:11:31.619Z,3.92
2022-12-26T02:14:17.600Z,3.88
2022-12-26T02:17:04.089Z,3.93
2022-12-26T02:20:04.107Z,3.90
2022-12-26T02:23:20.104Z,3.89
2022-12-26T02:26:24.005Z,3.87
2022-12-26T02:29:21.984Z,3.86
2022-12-26T02:32:26.326Z,3.82
2022-12-26T02:35:37.190Z,3.72
2022-12-26T02:38:48.492Z,3.66
2022-12-26T02:41:50.402Z,3.64
2022-12-26T02:44:54.823Z,3.62
2022-12-26T02:48:10.195Z,3.55
2022-12-26T02:51:14.230Z,3.52
2022-12-26T02:54:38.713Z,3.47
2022-12-26T02:57:50.133Z,3.43
2022-12-26T03:00:57.755Z,3.39
2022-12-26T03:04:08.668Z,3.36
2022-12-26T03:07:16.172Z,3.34
2022-12-26T03:10:25.934Z,3.33
2022-12-26T03:13:26.334Z,3.34
2022-12-26T03:16:31.114Z,3.33
2022-12-26T03:19:17.367Z,3.32
2022-12-26T03:22:27.725Z,3.31
2022-12-26T03:25:50.854Z,3.33
2022-12-26T03:28:36.776Z,3.29
2022-12-26T03:31:22.811Z,3.34
2022-12-26T03:34:28.154Z,3.36
2022-12-26T03:37:56.237Z,3.34
2022-12-26T03:41:10.138Z,3.33
2022-12-26T03:44:46.245Z,3.29
2022-12-26T03:48:37.835Z,3.29
2022-12-26T03:52:31.421Z,3.29
2022-12-26T03:56:15.828Z,3.29
2022-12-26T03:59:26.685Z,3.26
2022-12-26T04:02:39.702Z,3.27
2022-12-26T04:05:49.340Z,3.26
2022-12-26T04:09:13.315Z,3.24
2022-12-26T04:12:19.382Z,3.22
2022-12-26T04:16:06.103Z,3.15
2022-12-26T04:19:27.228Z,3.12
2022-12-26T04:22:39.672Z,3.07
2022-12-26T04:25:58.883Z,3.06
2022-12-26T04:29:03.397Z,3.05
2022-12-26T04:32:17.242Z,3.03
2022-12-26T04:35:47.024Z,2.99
2022-12-26T04:38:57.830Z,2.96
2022-12-26T04:42:03.841Z,2.92
2022-12-26T04:44:50.359Z,2.90
2022-12-26T04:47:36.447Z,2.91
2022-12-26T04:50:22.158Z,2.92
2022-12-26T04:53:07.733Z,2.93
2022-12-26T04:55:53.441Z,2.93
2022-12-26T04:58:39.286Z,2.89
2022-12-26T05:01:44.232Z,2.88
2022-12-26T05:04:48.996Z,2.87
2022-12-26T05:07:54.988Z,2.85
2022-12-26T05:10:40.978Z,2.83
2022-12-26T05:13:26.986Z,2.84
2022-12-26T05:16:31.143Z,2.83
2022-12-26T05:19:37.522Z,2.89
2022-12-26T05:22:42.515Z,2.86
2022-12-26T05:25:52.575Z,2.89
2022-12-26T05:28:44.638Z,2.88
2022-12-26T05:31:35.578Z,2.92
2022-12-26T05:34:22.421Z,2.95
2022-12-26T05:37:08.098Z,2.95
2022-12-26T05:39:53.853Z,2.93
2022-12-26T05:42:39.628Z,2.89
2022-12-26T05:45:25.237Z,2.88
2022-12-26T05:48:10.868Z,2.90
2022-12-26T05:51:03.377Z,2.90
2022-12-26T05:53:49.430Z,2.91
2022-12-26T05:56:35.319Z,2.88
2022-12-26T05:59:20.974Z,2.93
2022-12-26T06:02:07.002Z,2.97
2022-12-26T06:04:52.942Z,2.95
2022-12-26T06:07:38.863Z,3.03
2022-12-26T06:10:26.908Z,3.02
2022-12-26T06:13:12.564Z,3.06
2022-12-26T06:15:59.337Z,3.06
2022-12-26T06:18:45.661Z,3.06
2022-12-26T06:21:31.592Z,2.98
2022-12-26T06:24:17.382Z,2.91
2022-12-26T06:27:03.261Z,2.85
2022-12-26T06:29:49.179Z,2.77
2022-12-26T06:32:35.055Z,2.70
2022-12-26T06:35:23.660Z,2.68
2022-12-26T06:38:11.115Z,2.68
2022-12-26T06:41:02.887Z,2.64
2022-12-26T06:43:49.779Z,2.64
2022-12-26T06:46:35.398Z,2.69
2022-12-26T06:49:21.037Z,2.71
2022-12-26T06:52:07.490Z,2.69
2022-12-26T06:54:53.535Z,2.73
2022-12-26T06:57:39.199Z,2.77
2022-12-26T07:00:25.229Z,2.78
2022-12-26T07:03:11.544Z,2.84
2022-12-26T07:05:57.405Z,2.85
2022-12-26T07:08:43.014Z,2.87
2022-12-26T07:11:31.130Z,2.90
2022-12-26T07:14:17.277Z,2.92
2022-12-26T07:17:02.864Z,2.92
2022-12-26T07:19:48.569Z,2.95
2022-12-26T07:22:34.346Z,3.09
2022-12-26T07:25:20.119Z,3.14
2022-12-26T07:28:12.009Z,3.17
2022-12-26T07:30:59.986Z,3.24
2022-12-26T07:33:53.425Z,3.27
2022-12-26T07:36:40.508Z,3.33
2022-12-26T07:39:26.038Z,3.34
2022-12-26T07:42:11.810Z,3.39
2022-12-26T07:44:57.614Z,3.44
2022-12-26T07:47:43.108Z,3.50
2022-12-26T07:50:29.292Z,3.59
2022-12-26T07:53:15.438Z,3.67
2022-12-26T07:56:01.771Z,3.72
2022-12-26T07:58:51.549Z,3.74
2022-12-26T08:01:37.672Z,3.79
2022-12-26T08:04:23.735Z,3.77
2022-12-26T08:07:10.058Z,3.81
2022-12-26T08:09:55.676Z,3.85
2022-12-26T08:12:42.012Z,3.84
2022-12-26T08:15:27.781Z,3.88
2022-12-26T08:18:13.502Z,3.92
2022-12-26T08:20:59.890Z,3.91
2022-12-26T08:23:48.443Z,3.96
2022-12-26T08:26:34.411Z,3.97
2022-12-26T08:29:20.206Z,3.97
2022-12-26T08:32:06.169Z,3.96
2022-12-26T08:34:51.985Z,4.03
2022-12-26T08:37:38.004Z,4.06
2022-12-26T08:40:42.082Z,4.10
2022-12-26T08:43:48.914Z,4.14
2022-12-26T08:46:36.124Z,4.17
2022-12-26T08:49:21.765Z,4.23
2022-12-26T08:52:07.633Z,4.26
2022-12-26T08:54:53.676Z,4.30
2022-12-26T08:57:39.305Z,4.33
2022-12-26T09:00:26.477Z,4.42
2022-12-26T09:03:12.236Z,4.48
2022-12-26T09:06:05.718Z,4.55
2022-12-26T09:08:53.680Z,4.62
2022-12-26T09:11:41.071Z,4.69
2022-12-26T09:14:26.833Z,4.73
2022-12-26T09:17:12.727Z,4.77
2022-12-26T09:19:58.725Z,4.86
2022-12-26T09:22:55.570Z,4.89
2022-12-26T09:25:41.438Z,4.97
2022-12-26T09:28:27.515Z,4.99
2022-12-26T09:31:17.311Z,5.02
2022-12-26T09:34:05.220Z,5.07
2022-12-26T09:36:51.042Z,5.15
2022-12-26T09:39:36.919Z,5.24
2022-12-26T09:42:32.122Z,5.31
2022-12-26T09:45:19.965Z,5.38
2022-12-26T09:48:56.595Z,5.45
2022-12-26T09:51:46.001Z,5.51
2022-12-26T09:54:34.343Z,5.57
2022-12-26T09:57:34.945Z,5.65
2022-12-26T10:00:25.722Z,5.74
2022-12-26T10:03:12.835Z,5.86
2022-12-26T10:06:01.766Z,5.94
2022-12-26T10:09:08.794Z,5.99
2022-12-26T10:12:06.280Z,6.02
2022-12-26T10:15:07.497Z,6.06
2022-12-26T10:18:03.047Z,6.11
2022-12-26T10:21:11.508Z,6.12
2022-12-26T10:24:20.967Z,6.13
2022-12-26T10:27:14.482Z,6.17
2022-12-26T10:30:09.183Z,6.25
2022-12-26T10:32:59.597Z,6.30
2022-12-26T10:35:46.541Z,6.35
2022-12-26T10:38:46.195Z,6.36
2022-12-26T10:41:38.585Z,6.34
2022-12-26T10:44:27.763Z,6.35
2022-12-26T10:47:40.655Z,6.32
2022-12-26T10:50:29.424Z,6.31
2022-12-26T10:53:16.220Z,6.21
2022-12-26T10:56:02.656Z,6.23
2022-12-26T10:59:02.536Z,6.19
2022-12-26T11:01:49.753Z,6.17
2022-12-26T11:05:10.466Z,6.17
2022-12-26T11:07:50.534Z,6.21
2022-12-26T11:10:36.388Z,6.26
2022-12-26T11:13:23.323Z,6.34
2022-12-26T11:16:11.575Z,6.45
2022-12-26T11:18:57.849Z,6.59
2022-12-26T11:21:43.791Z,6.73
2022-12-26T11:24:29.549Z,6.89
2022-12-26T11:27:23.717Z,7.04
2022-12-26T11:30:23.208Z,7.15
2022-12-26T11:33:33.999Z,7.21
2022-12-26T11:36:22.985Z,7.23
2022-12-26T11:39:25.306Z,7.31
2022-12-26T11:42:12.515Z,7.29
2022-12-26T11:45:00.231Z,7.26
2022-12-26T11:47:46.318Z,7.29
2022-12-26T11:50:32.327Z,7.31
2022-12-26T11:53:20.689Z,7.32
2022-12-26T11:56:07.256Z,7.34
2022-12-26T11:59:08.107Z,7.38
2022-12-26T12:02:15.214Z,7.45
2022-12-26T12:05:13.144Z,7.54
2022-12-26T12:08:14.497Z,7.59
2022-12-26T12:11:34.375Z,7.73
2022-12-26T12:14:35.818Z,7.80
2022-12-26T12:17:35.132Z,7.88
2022-12-26T12:20:35.968Z,7.98
2022-12-26T12:23:44.151Z,8.21
2022-12-26T12:26:38.056Z,8.43
2022-12-26T12:29:42.619Z,8.70
2022-12-26T12:33:09.566Z,9.02
2022-12-26T12:36:11.804Z,9.21
2022-12-26T12:39:34.673Z,9.43
2022-12-26T12:42:28.098Z,9.71
2022-12-26T12:45:22.364Z,9.88
2022-12-26T12:48:33.042Z,9.92
2022-12-26T12:51:35.970Z,9.83
2022-12-26T12:55:12.538Z,9.71
2022-12-26T12:58:26.366Z,9.56
2022-12-26T13:01:34.505Z,9.42
2022-12-26T13:04:29.313Z,9.29
2022-12-26T13:07:39.429Z,9.18
2022-12-26T13:10:33.279Z,9.09
2022-12-26T13:13:27.457Z,9.07
2022-12-26T13:16:17.414Z,9.04
2022-12-26T13:19:06.922Z,9.03
2022-12-26T13:21:56.069Z,9.05
2022-12-26T13:24:45.343Z,9.20
2022-12-26T13:27:34.032Z,9.41
2022-12-26T13:30:19.805Z,9.72
2022-12-26T13:33:05.967Z,10.03
2022-12-26T13:36:01.028Z,10.38
2022-12-26T13:38:56.249Z,10.73
2022-12-26T13:42:26.916Z,11.06
2022-12-26T13:45:37.534Z,11.38
2022-12-26T13:48:26.363Z,11.62
2022-12-26T13:51:46.269Z,11.83
2022-12-26T13:54:32.668Z,12.02
2022-12-26T13:57:30.361Z,12.14
2022-12-26T14:00:40.108Z,12.21
2022-12-26T14:03:55.663Z,12.17
2022-12-26T14:07:05.484Z,12.00
2022-12-26T14:10:05.398Z,11.78
2022-12-26T14:13:27.833Z,11.53
2022-12-26T14:16:54.182Z,11.21
2022-12-26T14:19:53.705Z,11.02
2022-12-26T14:23:04.602Z,10.79
2022-12-26T14:26:03.642Z,10.65
2022-12-26T14:28:52.573Z,10.52
2022-12-26T14:32:04.039Z,10.38
2022-12-26T14:35:09.518Z,10.23
2022-12-26T14:38:11.306Z,10.08
2022-12-26T14:41:06.132Z,9.94
2022-12-26T14:43:56.338Z,9.85
2022-12-26T14:46:43.692Z,9.75
2022-12-26T14:49:35.922Z,9.67
2022-12-26T14:52:25.568Z,9.57
2022-12-26T14:56:01.592Z,9.49
2022-12-26T14:58:54.117Z,9.39
2022-12-26T15:01:40.342Z,9.36
2022-12-26T15:04:32.558Z,9.30
2022-12-26T15:07:42.716Z,9.24
2022-12-26T15:11:23.885Z,9.18
2022-12-26T15:14:28.479Z,9.12
2022-12-26T15:17:49.296Z,9.06
2022-12-26T15:21:09.169Z,8.99
2022-12-26T15:24:09.984Z,8.92
2022-12-26T15:27:38.562Z,8.85
2022-12-26T15:30:41.745Z,8.79
2022-12-26T15:33:43.454Z,8.73
2022-12-26T15:37:08.812Z,8.69
2022-12-26T15:40:08.157Z,8.62
2022-12-26T15:43:04.008Z,8.55
2022-12-26T15:45:58.593Z,8.50
2022-12-26T15:48:47.564Z,8.45
2022-12-26T15:51:55.652Z,8.36
2022-12-26T15:55:05.040Z,8.34
2022-12-26T15:58:02.012Z,8.25
2022-12-26T16:00:54.098Z,8.22
2022-12-26T16:03:54.026Z,8.16
2022-12-26T16:06:48.824Z,8.10
2022-12-26T16:09:43.870Z,8.01
2022-12-26T16:12:32.713Z,7.95
2022-12-26T16:15:19.116Z,7.91
2022-12-26T16:18:26.630Z,7.85
2022-12-26T16:21:33.244Z,7.81
2022-12-26T16:24:22.087Z,7.74
2022-12-26T16:27:09.611Z,7.75
2022-12-26T16:29:58.169Z,7.67
2022-12-26T16:32:45.008Z,7.68
2022-12-26T16:35:36.659Z,7.65
2022-12-26T16:38:26.772Z,7.61
2022-12-26T16:41:30.799Z,7.57
2022-12-26T16:44:41.439Z,7.53
2022-12-26T16:47:29.190Z,7.46
2022-12-26T16:50:17.899Z,7.46
2022-12-26T16:53:13.597Z,7.38
2022-12-26T16:56:23.591Z,7.31
2022-12-26T16:59:17.960Z,7.31
2022-12-26T17:02:04.803Z,7.29
2022-12-26T17:04:58.849Z,7.26
2022-12-26T17:07:46.887Z,7.23
2022-12-26T17:10:35.427Z,7.23
2022-12-26T17:13:25.205Z,7.17
2022-12-26T17:16:11.275Z,7.16
2022-12-26T17:19:19.910Z,7.12
2022-12-26T17:22:18.022Z,7.08
2022-12-26T17:25:32.043Z,7.03
2022-12-26T17:28:18.223Z,6.98
2022-12-26T17:31:24.931Z,6.96
2022-12-26T17:34:17.760Z,6.91
2022-12-26T17:37:20.538Z,6.87
2022-12-26T17:40:16.018Z,6.81
2022-12-26T17:43:34.440Z,6.77
2022-12-26T17:46:23.764Z,6.74
2022-12-26T17:49:09.609Z,6.72
2022-12-26T17:52:02.044Z,6.74
2022-12-26T17:54:51.352Z,6.73
2022-12-26T17:57:37.116Z,6.69
2022-12-26T18:00:26.019Z,6.67
2022-12-26T18:03:12.239Z,6.65
2022-12-26T18:05:58.342Z,6.60
2022-12-26T18:08:44.765Z,6.53
2022-12-26T18:11:30.759Z,6.51
2022-12-26T18:14:16.432Z,6.48
2022-12-26T18:17:03.070Z,6.50
2022-12-26T18:19:50.224Z,6.48
2022-12-26T18:22:36.068Z,6.46
2022-12-26T18:25:24.817Z,6.42
2022-12-26T18:28:15.265Z,6.40
2022-12-26T18:31:01.360Z,6.41
2022-12-26T18:33:47.257Z,6.35
2022-12-26T18:36:35.850Z,6.32
2022-12-26T18:39:21.805Z,6.31
2022-12-26T18:42:12.047Z,6.31
2022-12-26T18:44:57.770Z,6.29
2022-12-26T18:47:43.448Z,6.27
2022-12-26T18:50:30.209Z,6.22
2022-12-26T18:53:15.955Z,6.20
2022-12-26T18:56:01.988Z,6.15
2022-12-26T18:58:54.065Z,6.12
2022-12-26T19:01:43.843Z,6.12
2022-12-26T19:04:29.726Z,6.12
2022-12-26T19:07:17.370Z,6.11
2022-12-26T19:10:03.018Z,6.07
2022-12-26T19:12:48.830Z,6.02
2022-12-26T19:15:36.013Z,6.00
2022-12-26T19:18:21.753Z,5.99
2022-12-26T19:21:16.505Z,5.97
2022-12-26T19:24:02.683Z,5.94
2022-12-26T19:26:48.715Z,5.92
2022-12-26T19:29:34.391Z,5.90
2022-12-26T19:32:20.366Z,5.94
2022-12-26T19:35:07.753Z,5.94
2022-12-26T19:37:53.597Z,5.90
2022-12-26T19:40:39.591Z,5.90
2022-12-26T19:43:25.343Z,5.89
2022-12-26T19:46:15.482Z,5.91
2022-12-26T19:49:01.449Z,5.92
2022-12-26T19:51:47.672Z,5.92
2022-12-26T19:54:42.922Z,5.88
2022-12-26T19:57:43.706Z,5.89
2022-12-26T20:00:30.883Z,5.85
2022-12-26T20:03:16.822Z,5.85
2022-12-26T20:06:15.436Z,5.81
2022-12-26T20:09:05.762Z,5.80
2022-12-26T20:11:54.206Z,5.76
2022-12-26T20:14:40.082Z,5.74
2022-12-26T20:17:26.128Z,5.72
2022-12-26T20:20:11.941Z,5.73
2022-12-26T20:22:57.842Z,5.70
2022-12-26T20:25:43.534Z,5.68
2022-12-26T20:28:29.801Z,5.65
2022-12-26T20:31:19.416Z,5.63
2022-12-26T20:34:05.377Z,5.57
2022-12-26T20:36:51.562Z,5.53
2022-12-26T20:39:37.572Z,5.52
2022-12-26T20:42:23.464Z,5.51
2022-12-26T20:45:09.632Z,5.46
2022-12-26T20:47:55.429Z,5.47
2022-12-26T20:50:41.366Z,5.46
2022-12-26T20:53:28.364Z,5.42
2022-12-26T20:56:14.817Z,5.40
2022-12-26T20:59:00.881Z,5.37
2022-12-26T21:01:46.778Z,5.38
2022-12-26T21:04:33.300Z,5.37
2022-12-26T21:07:19.425Z,5.35
2022-12-26T21:10:05.481Z,5.34
2022-12-26T21:12:53.433Z,5.29
2022-12-26T21:15:39.631Z,5.27
2022-12-26T21:18:25.702Z,5.21
2022-12-26T21:21:17.083Z,5.17
2022-12-26T21:24:10.871Z,5.16
2022-12-26T21:26:57.189Z,5.12
2022-12-26T21:29:42.995Z,5.09
2022-12-26T21:32:28.658Z,5.05
2022-12-26T21:35:14.960Z,5.00
2022-12-26T21:38:01.153Z,4.96
2022-12-26T21:40:47.372Z,4.95
2022-12-26T21:43:34.240Z,4.89
2022-12-26T21:46:20.660Z,4.90
2022-12-26T21:49:06.425Z,4.85
2022-12-26T21:51:52.052Z,4.83
2022-12-26T21:54:56.378Z,4.70
2022-12-26T21:57:42.182Z,4.59
2022-12-26T22:00:31.377Z,4.54
2022-12-26T22:03:52.539Z,4.52
2022-12-26T22:06:38.696Z,4.49
2022-12-26T22:09:25.044Z,4.47
2022-12-26T22:12:30.185Z,4.45
2022-12-26T22:15:34.948Z,4.42
2022-12-26T22:18:21.405Z,4.38
2022-12-26T22:21:12.987Z,4.36
2022-12-26T22:23:59.765Z,4.34
2022-12-26T22:26:45.910Z,4.34
2022-12-26T22:29:31.715Z,4.27
2022-12-26T22:32:17.454Z,4.25
2022-12-26T22:35:03.656Z,4.21
2022-12-26T22:37:49.451Z,4.16
2022-12-26T22:40:36.124Z,4.13
2022-12-26T22:43:22.311Z,4.10
2022-12-26T22:46:08.221Z,4.02
2022-12-26T22:48:54.038Z,4.03
2022-12-26T22:51:39.702Z,3.96
2022-12-26T22:54:26.079Z,3.86
2022-12-26T22:57:12.133Z,3.87
2022-12-26T23:00:08.235Z,3.84
2022-12-26T23:02:55.222Z,3.80
2022-12-26T23:05:41.592Z,3.85
2022-12-26T23:08:28.256Z,3.85
2022-12-26T23:11:14.497Z,3.84
2022-12-26T23:14:01.357Z,3.88
2022-12-26T23:16:58.385Z,3.87
2022-12-26T23:20:07.965Z,3.86
2022-12-26T23:22:54.095Z,3.90
2022-12-26T23:25:40.200Z,3.89
2022-12-26T23:28:44.619Z,3.92
2022-12-26T23:31:30.641Z,3.93
2022-12-26T23:34:16.369Z,3.94
2022-12-26T23:37:02.784Z,3.97
2022-12-26T23:39:48.646Z,4.00
2022-12-26T23:42:34.267Z,3.92
2022-12-26T23:45:20.191Z,3.98
2022-12-26T23:48:06.065Z,3.97
2022-12-26T23:51:03.914Z,3.94
2022-12-26T23:53:49.602Z,3.92
2022-12-26T23:56:36.978Z,3.86
2022-12-26T23:59:23.564Z,3.83
